Time;durP1;ratioP1;P1;durP2;ratioP2;P2;SDS_P1;SDS_P2;PMS_P1;PMS_P2;Temp;Humidity;BMP_temperature;BMP_pressure;BME280_temperature;BME280_humidity;BME280_pressure;Samples;Min_cycle;Max_cycle;Signal;HPM_P1;HPM_P2
2021/05/31 00:00:45;;;;;;;2.50;1.60;;;;;;;10.89;54.68;101938.41;5076267;28;21458;-66
2021/05/31 00:03:16;;;;;;;5.17;1.50;;;;;;;10.86;54.59;101933.19;5070668;28;20258;-67
2021/05/31 00:05:43;;;;;;;5.40;1.40;;;;;;;10.78;54.59;101930.00;5072767;28;20602;-67
2021/05/31 00:08:11;;;;;;;4.80;1.40;;;;;;;10.78;54.32;101930.00;5070534;28;20926;-66
2021/05/31 00:10:39;;;;;;;2.17;1.30;;;;;;;10.75;54.87;101923.91;5070423;28;20729;-66
2021/05/31 00:13:06;;;;;;;3.53;1.50;;;;;;;10.73;54.58;101920.44;5071200;28;20233;-66
2021/05/31 00:15:34;;;;;;;5.43;1.50;;;;;;;10.66;54.58;101922.53;5077864;28;20611;-67
2021/05/31 00:18:02;;;;;;;4.00;1.37;;;;;;;10.62;54.84;101915.56;5069494;28;20892;-67
2021/05/31 00:20:30;;;;;;;1.47;1.37;;;;;;;10.57;55.66;101914.94;5077806;28;20244;-67
2021/05/31 00:22:58;;;;;;;6.27;1.47;;;;;;;10.53;55.58;101907.97;5075624;28;20202;-67
2021/05/31 00:25:26;;;;;;;2.50;1.53;;;;;;;10.50;55.28;101911.69;5071266;28;20201;-66
2021/05/31 00:27:54;;;;;;;3.13;1.23;;;;;;;10.50;54.84;101911.69;5075484;28;20205;-66
2021/05/31 00:30:24;;;;;;;5.43;1.53;;;;;;;10.50;54.81;101919.75;5068393;28;20609;-67
2021/05/31 00:32:52;;;;;;;4.13;1.67;;;;;;;10.47;54.75;101916.34;5072246;28;20215;-66
2021/05/31 00:35:20;;;;;;;2.10;1.63;;;;;;;10.46;54.84;101911.91;5063257;28;20204;-66
2021/05/31 00:37:48;;;;;;;4.53;2.03;;;;;;;10.44;55.09;101914.69;5067137;28;20197;-67
2021/05/31 00:40:18;;;;;;;2.57;1.40;;;;;;;10.43;54.95;101901.31;5071607;28;20199;-66
2021/05/31 00:42:46;;;;;;;2.17;1.40;;;;;;;10.39;55.78;101891.66;5068975;28;20208;-72
2021/05/31 00:45:14;;;;;;;1.57;1.40;;;;;;;10.33;56.01;101894.63;5080084;28;20993;-72
2021/05/31 00:47:42;;;;;;;2.73;1.50;;;;;;;10.25;56.70;101903.94;5071872;28;20199;-72
2021/05/31 00:50:13;;;;;;;1.50;1.40;;;;;;;10.23;55.79;101895.09;5065448;28;20240;-72
2021/05/31 00:52:41;;;;;;;3.30;1.87;;;;;;;10.23;56.29;101896.91;5067424;28;20242;-72
2021/05/31 00:55:11;;;;;;;2.60;1.30;;;;;;;10.21;55.91;101891.59;5073169;28;20212;-66
2021/05/31 00:57:38;;;;;;;2.10;1.67;;;;;;;10.21;55.52;101891.59;5073617;28;20203;-66
2021/05/31 01:00:08;;;;;;;1.60;1.30;;;;;;;10.21;55.55;101898.78;5068133;28;20568;-66
2021/05/31 01:02:36;;;;;;;4.77;1.30;;;;;;;10.00;55.91;101863.06;5087160;28;20291;-65
2021/05/31 01:05:06;;;;;;;2.23;1.40;;;;;;;10.20;56.02;101888.97;5074879;28;20201;-66
2021/05/31 01:07:39;;;;;;;3.97;1.77;;;;;;;10.18;56.00;101889.03;5070388;28;20204;-65
2021/05/31 01:10:18;;;;;;;2.33;1.50;;;;;;;10.10;55.70;101882.28;5075574;28;20211;-66
2021/05/31 01:12:55;;;;;;;1.43;1.33;;;;;;;10.08;56.11;101886.84;5069283;28;20201;-66
2021/05/31 01:15:26;;;;;;;5.63;1.50;;;;;;;10.02;56.98;101890.69;5072267;28;20231;-66
2021/05/31 01:18:02;;;;;;;15.63;10.27;;;;;;;9.97;56.98;101884.69;5067147;28;20678;-66
2021/05/31 01:20:50;;;;;;;2.67;2.37;;;;;;;9.94;56.85;101883.00;5067869;28;20638;-65
2021/05/31 01:23:19;;;;;;;6.50;2.10;;;;;;;9.87;57.80;101880.69;5064805;28;20208;-66
2021/05/31 01:26:03;;;;;;;2.47;2.10;;;;;;;9.82;59.06;101874.69;5069820;28;20207;-65
2021/05/31 01:29:00;;;;;;;3.57;1.70;;;;;;;9.85;59.06;101877.22;5065947;28;20204;-65
2021/05/31 01:31:42;;;;;;;1.47;1.37;;;;;;;9.80;58.06;101871.19;5072797;28;20249;-66
2021/05/31 01:34:11;;;;;;;5.97;1.57;;;;;;;9.83;57.43;101877.28;5070861;28;20200;-72
2021/05/31 01:36:44;;;;;;;3.77;1.50;;;;;;;9.85;57.61;101877.22;5067211;28;20392;-72
2021/05/31 01:39:14;;;;;;;3.47;1.80;;;;;;;9.80;57.78;101874.75;5068123;28;20196;-72
2021/05/31 01:41:43;;;;;;;2.60;1.60;;;;;;;9.80;56.94;101872.06;5065028;28;20693;-73
2021/05/31 01:44:14;;;;;;;6.10;4.17;;;;;;;9.79;57.40;101870.28;5074273;28;20218;-71
2021/05/31 01:46:42;;;;;;;2.20;1.80;;;;;;;9.79;56.85;101866.75;5079600;28;20200;-71
2021/05/31 01:49:10;;;;;;;1.67;1.40;;;;;;;9.50;57.28;101820.72;5082293;28;20632;-66
2021/05/31 01:51:39;;;;;;;2.77;1.40;;;;;;;9.59;57.78;101841.72;5073681;28;20220;-66
2021/05/31 01:54:07;;;;;;;2.70;1.50;;;;;;;9.72;57.55;101868.84;5067464;28;20686;-66
2021/05/31 01:56:36;;;;;;;6.80;4.37;;;;;;;9.62;58.07;101844.28;5068508;28;20197;-65
2021/05/31 01:59:04;;;;;;;3.43;1.77;;;;;;;9.64;59.01;101854.91;5069986;28;20205;-66
2021/05/31 02:01:34;;;;;;;4.50;1.53;;;;;;;9.70;58.41;101856.44;5067807;28;20686;-66
2021/05/31 02:04:01;;;;;;;3.70;1.47;;;;;;;9.69;58.03;101849.34;5068869;28;20572;-65
2021/05/31 02:06:29;;;;;;;3.60;1.70;;;;;;;9.66;58.17;101847.69;5065911;28;20211;-66
2021/05/31 02:08:57;;;;;;;1.70;1.60;;;;;;;9.63;57.61;101840.66;5067871;28;20201;-65
2021/05/31 02:11:31;;;;;;;2.57;1.60;;;;;;;9.63;57.64;101845.13;5066601;28;20598;-72
2021/05/31 02:14:03;;;;;;;7.20;1.60;;;;;;;9.61;57.59;101836.28;5068438;28;20247;-71
2021/05/31 02:16:38;;;;;;;4.60;1.50;;;;;;;9.59;58.15;101836.38;5072831;28;20236;-72
2021/05/31 02:19:09;;;;;;;3.67;1.63;;;;;;;9.59;57.86;101832.81;5069350;28;20598;-72
2021/05/31 02:21:39;;;;;;;6.90;1.50;;;;;;;9.55;57.96;101826.72;5063780;28;20680;-72
2021/05/31 02:24:09;;;;;;;2.03;1.50;;;;;;;9.55;58.19;101825.84;5067749;28;20284;-72
2021/05/31 02:26:38;;;;;;;1.90;1.70;;;;;;;9.54;58.90;101829.47;5070334;28;20197;-66
2021/05/31 02:29:05;;;;;;;1.70;1.20;;;;;;;9.57;58.57;101830.22;5068307;28;20679;-66
2021/05/31 02:31:34;;;;;;;4.33;1.73;;;;;;;9.67;58.54;101817.22;5068461;28;20227;-66
2021/05/31 02:34:02;;;;;;;5.43;1.63;;;;;;;9.98;59.15;101832.75;5066423;28;20229;-72
2021/05/31 02:36:30;;;;;;;2.63;1.67;;;;;;;10.40;59.16;101811.00;5067119;28;20208;-72
2021/05/31 02:38:57;;;;;;;2.60;1.60;;;;;;;10.93;59.67;101815.47;5069428;28;20614;-66
2021/05/31 02:41:25;;;;;;;3.53;1.97;;;;;;;11.60;59.17;101821.78;5066140;28;20575;-72
2021/05/31 02:43:53;;;;;;;4.20;1.37;;;;;;;12.18;58.18;101815.84;5067718;28;20508;-66
2021/05/31 02:46:20;;;;;;;3.00;1.73;;;;;;;12.86;57.80;101821.75;5065982;28;20198;-66
2021/05/31 02:48:52;;;;;;;1.90;1.70;;;;;;;13.60;57.03;101813.59;5069141;28;20281;-66
2021/05/31 02:51:20;;;;;;;3.50;1.73;;;;;;;14.36;55.38;101811.28;5069185;28;20220;-66
2021/05/31 02:53:47;;;;;;;5.07;1.60;;;;;;;15.07;54.81;101808.28;5088957;28;20204;-66
2021/05/31 02:56:15;;;;;;;1.50;1.40;;;;;;;15.72;52.53;101802.78;5072484;28;20205;-66
2021/05/31 02:58:42;;;;;;;1.53;1.43;;;;;;;16.19;50.38;101802.97;5056316;28;20613;-71
2021/05/31 03:01:10;;;;;;;2.47;1.40;;;;;;;16.44;48.89;101801.00;5067575;28;20289;-72
2021/05/31 03:03:38;;;;;;;2.43;1.70;;;;;;;16.52;49.31;101788.72;5069238;28;20189;-66
2021/05/31 03:06:07;;;;;;;2.87;1.30;;;;;;;16.79;49.05;101799.34;5063315;28;20189;-71
2021/05/31 03:08:35;;;;;;;1.37;1.27;;;;;;;16.93;48.45;101799.16;5071502;28;20204;-71
2021/05/31 03:11:03;;;;;;;4.03;1.40;;;;;;;17.05;47.70;101788.19;5068249;28;20703;-72
2021/05/31 03:13:30;;;;;;;3.80;1.30;;;;;;;17.02;47.93;101791.16;5065747;28;20245;-72
2021/05/31 03:15:58;;;;;;;1.40;1.30;;;;;;;16.95;48.01;101787.19;5068503;28;20233;-72
2021/05/31 03:18:26;;;;;;;2.90;1.43;;;;;;;16.66;47.76;101775.88;5066886;28;20201;-71
2021/05/31 03:20:53;;;;;;;1.70;1.60;;;;;;;16.18;49.37;101776.84;5071219;28;20629;-67
2021/05/31 03:23:22;;;;;;;3.07;1.40;;;;;;;15.75;49.26;101777.31;5064985;28;20193;-67
2021/05/31 03:25:52;;;;;;;1.60;1.50;;;;;;;15.17;50.06;101757.09;5058102;28;20210;-67
2021/05/31 03:28:20;;;;;;;5.30;1.33;;;;;;;15.05;50.96;101776.91;5051904;28;20547;-67
2021/05/31 03:30:48;;;;;;;1.73;1.63;;;;;;;14.67;52.10;101747.94;5067230;28;20710;-67
2021/05/31 03:33:15;;;;;;;1.50;1.40;;;;;;;14.91;51.86;101784.13;5067388;28;20235;-67
2021/05/31 03:35:43;;;;;;;1.50;1.40;;;;;;;14.99;52.13;101778.16;5067273;28;20718;-67
2021/05/31 03:38:10;;;;;;;2.63;1.63;;;;;;;14.85;53.13;101779.16;5067602;28;20202;-67
2021/05/31 03:40:39;;;;;;;2.00;1.80;;;;;;;14.80;52.04;101778.59;5065396;28;20579;-67
2021/05/31 03:43:07;;;;;;;3.00;1.60;;;;;;;14.81;52.64;101777.63;5055735;28;20211;-67
2021/05/31 03:45:35;;;;;;;2.87;1.67;;;;;;;14.75;51.85;101785.31;5062479;28;20461;-67
2021/05/31 03:48:02;;;;;;;2.53;1.63;;;;;;;14.78;52.34;101785.09;5066669;28;20211;-67
2021/05/31 03:50:31;;;;;;;2.00;1.63;;;;;;;14.70;52.64;101784.75;5074871;28;20207;-67
2021/05/31 03:52:58;;;;;;;1.67;1.40;;;;;;;14.65;52.86;101789.59;5066825;28;20206;-66
2021/05/31 03:55:26;;;;;;;3.27;1.63;;;;;;;14.56;52.36;101772.16;5068966;28;20206;-71
2021/05/31 03:57:55;;;;;;;1.50;1.40;;;;;;;14.63;53.43;101781.56;5065806;28;20270;-66
2021/05/31 04:00:24;;;;;;;1.60;1.50;;;;;;;14.59;54.09;101777.34;5066611;28;20692;-71
2021/05/31 04:02:51;;;;;;;1.77;1.40;;;;;;;14.56;53.95;101777.56;5081489;28;20198;-71
2021/05/31 04:05:20;;;;;;;1.63;1.50;;;;;;;14.53;54.86;101781.34;5048410;28;20241;-71
2021/05/31 04:13:10;;;;;;;2.33;1.70;;;;;;;14.27;56.67;101764.13;5011046;28;20634;-72
2021/05/31 04:15:38;;;;;;;2.57;1.60;;;;;;;14.19;58.47;101768.34;5021726;28;20309;-72
2021/05/31 04:18:05;;;;;;;2.67;1.90;;;;;;;14.23;58.63;101765.31;5016369;28;20204;-72
2021/05/31 04:20:34;;;;;;;4.80;1.87;;;;;;;14.13;59.79;101756.09;5021708;28;20553;-72
2021/05/31 04:23:02;;;;;;;5.27;1.83;;;;;;;14.23;59.34;101759.06;5020233;28;20200;-72
2021/05/31 04:25:30;;;;;;;1.97;1.70;;;;;;;13.99;59.24;101711.09;5021057;28;20270;-67
2021/05/31 04:27:58;;;;;;;2.00;1.70;;;;;;;14.17;59.43;101756.75;5026224;28;20306;-72
2021/05/31 04:30:27;;;;;;;4.60;1.90;;;;;;;14.22;59.62;101762.72;5028005;28;20784;-71
2021/05/31 04:32:55;;;;;;;4.13;2.10;;;;;;;14.26;59.41;101748.03;5018962;28;20209;-72
2021/05/31 04:35:23;;;;;;;1.80;1.70;;;;;;;14.40;59.03;101750.69;5022432;28;20205;-67
2021/05/31 04:37:56;;;;;;;1.93;1.80;;;;;;;14.52;57.98;101740.91;5017901;28;20711;-71
2021/05/31 04:40:24;;;;;;;2.27;1.90;;;;;;;14.72;57.75;101739.53;5015844;28;20834;-66
2021/05/31 04:42:52;;;;;;;3.97;1.87;;;;;;;14.84;56.61;101735.97;5020487;28;20205;-72
2021/05/31 04:45:20;;;;;;;3.70;2.00;;;;;;;15.01;56.22;101732.97;5051917;28;20207;-72
2021/05/31 04:47:49;;;;;;;4.20;2.20;;;;;;;15.15;55.99;101722.03;5016291;28;20216;-72
2021/05/31 04:50:16;;;;;;;4.00;2.30;;;;;;;15.34;54.80;101720.72;5052479;28;20207;-72
2021/05/31 04:52:44;;;;;;;3.47;2.20;;;;;;;15.50;55.19;101716.78;5008541;28;20417;-72
2021/05/31 04:55:16;;;;;;;3.27;2.13;;;;;;;15.72;54.96;101716.09;5016548;28;20277;-67
2021/05/31 04:57:44;;;;;;;4.70;2.10;;;;;;;15.85;54.48;101710.63;5015517;28;20199;-67
2021/05/31 05:00:16;;;;;;;6.27;2.60;;;;;;;16.05;54.10;101711.88;5024557;28;20204;-67
2021/05/31 05:02:44;;;;;;;2.97;2.03;;;;;;;16.04;54.12;101670.34;5024392;28;20289;-67
2021/05/31 05:05:14;;;;;;;4.63;2.47;;;;;;;16.58;52.81;101717.75;5016012;28;20195;-67
2021/05/31 05:07:45;;;;;;;3.10;2.30;;;;;;;16.71;52.77;101713.13;5014454;28;20290;-66
2021/05/31 05:10:17;;;;;;;2.80;2.40;;;;;;;16.54;53.33;101695.44;5020221;28;20250;-66
2021/05/31 05:12:47;;;;;;;3.30;2.43;;;;;;;16.81;52.89;101700.56;5014709;28;20990;-66
2021/05/31 05:15:17;;;;;;;7.00;2.70;;;;;;;16.97;52.28;101701.09;5025380;28;20233;-67
2021/05/31 05:17:46;;;;;;;3.93;2.60;;;;;;;16.95;52.55;101703.06;5018823;28;20191;-67
2021/05/31 05:20:17;;;;;;;3.17;2.40;;;;;;;17.15;51.75;101673.47;5024400;28;20199;-67
2021/05/31 05:22:45;;;;;;;4.77;2.77;;;;;;;17.22;52.34;101696.44;5022148;28;20225;-66
2021/05/31 05:25:13;;;;;;;3.90;2.73;;;;;;;17.47;51.31;101693.44;5024971;28;20282;-66
2021/05/31 05:27:42;;;;;;;6.00;2.57;;;;;;;17.51;51.61;101700.34;5028695;28;20191;-67
2021/05/31 05:30:12;;;;;;;4.50;2.57;;;;;;;17.67;51.19;101695.41;5022143;28;20600;-66
2021/05/31 05:32:40;;;;;;;3.43;2.40;;;;;;;17.95;50.63;101693.13;5023676;28;20219;-68
2021/05/31 05:35:19;;;;;;;3.60;2.80;;;;;;;17.97;51.46;101697.44;5022108;28;20190;-68
2021/05/31 05:38:11;;;;;;;6.63;3.07;;;;;;;18.34;49.84;101698.91;5013290;28;20823;-67
2021/05/31 05:43:45;;;;;;;5.33;2.37;;;;;;;18.74;49.21;101690.94;5022335;28;20206;-66
2021/05/31 05:46:24;;;;;;;6.53;3.17;;;;;;;18.98;48.17;101693.34;5010431;28;20218;-73
2021/05/31 05:48:57;;;;;;;3.90;2.50;;;;;;;19.21;47.53;101687.59;5015640;28;20256;-72
2021/05/31 05:51:25;;;;;;;5.47;2.50;;;;;;;19.24;47.75;101684.59;5015331;28;20210;-66
2021/05/31 05:53:59;;;;;;;4.17;2.70;;;;;;;19.17;47.38;101682.56;5015445;28;20203;-66
2021/05/31 05:56:27;;;;;;;4.63;2.57;;;;;;;19.21;47.99;101679.44;5018172;28;20195;-67
2021/05/31 05:58:56;;;;;;;3.63;2.70;;;;;;;19.16;48.01;101683.56;5015728;28;20210;-66
2021/05/31 06:01:25;;;;;;;5.33;2.93;;;;;;;19.30;47.50;101682.34;5017423;28;20249;-66
2021/05/31 06:03:54;;;;;;;5.30;2.70;;;;;;;19.46;47.72;101683.53;5017488;28;20206;-67
2021/05/31 06:06:23;;;;;;;3.27;2.77;;;;;;;19.58;47.50;101675.28;5017804;28;20203;-66
2021/05/31 06:08:52;;;;;;;5.27;2.90;;;;;;;19.73;47.42;101676.63;5019346;28;20189;-67
2021/05/31 06:11:21;;;;;;;410.87;291.20;;;;;;;19.73;47.18;101633.88;5021735;28;20207;-67
2021/05/31 06:13:51;;;;;;;447.03;237.37;;;;;;;20.25;46.59;101671.81;5030260;28;20659;-71
2021/05/31 06:16:19;;;;;;;51.13;30.73;;;;;;;20.50;46.98;101675.81;5023441;28;20610;-73
2021/05/31 06:18:47;;;;;;;19.13;13.07;;;;;;;20.81;46.85;101671.88;5015913;28;20206;-72
2021/05/31 06:21:15;;;;;;;8.47;6.27;;;;;;;21.05;46.51;101663.19;5017808;28;20199;-73
2021/05/31 06:23:42;;;;;;;10.47;4.50;;;;;;;21.39;46.25;101672.56;5017029;28;20207;-73
2021/05/31 06:26:10;;;;;;;6.27;4.10;;;;;;;21.74;45.88;101670.97;5018554;28;20205;-72
2021/05/31 06:28:39;;;;;;;8.37;2.90;;;;;;;21.84;45.95;101670.88;5017439;28;20195;-73
2021/05/31 06:31:07;;;;;;;4.67;3.70;;;;;;;22.12;45.90;101669.00;5018607;28;20196;-73
2021/05/31 06:33:34;;;;;;;4.20;3.37;;;;;;;22.41;44.17;101669.59;5014366;28;20708;-73
2021/05/31 06:36:06;;;;;;;8.20;3.50;;;;;;;22.65;43.14;101670.78;5023939;28;20203;-73
2021/05/31 06:38:34;;;;;;;3.20;2.70;;;;;;;22.49;43.26;101677.88;5017724;28;20199;-73
2021/05/31 06:41:03;;;;;;;6.57;2.40;;;;;;;22.47;43.33;101652.53;5023766;28;20230;-73
2021/05/31 06:43:32;;;;;;;3.27;2.80;;;;;;;22.63;43.65;101668.22;5017805;28;20560;-73
2021/05/31 06:46:01;;;;;;;3.83;2.00;;;;;;;22.50;43.97;101660.41;5016775;28;20256;-72
2021/05/31 06:48:29;;;;;;;2.20;2.00;;;;;;;22.53;43.27;101673.78;5014804;28;20195;-67
2021/05/31 06:50:57;;;;;;;3.20;2.00;;;;;;;22.56;43.58;101654.31;5018284;28;20200;-67
2021/05/31 06:53:26;;;;;;;5.87;2.60;;;;;;;22.68;43.62;101659.53;5015383;28;20258;-67
2021/05/31 06:55:53;;;;;;;2.50;2.20;;;;;;;22.65;43.27;101665.31;5016720;28;20198;-67
2021/05/31 06:58:21;;;;;;;3.60;2.53;;;;;;;22.90;42.87;101654.41;5015291;28;20285;-67
2021/05/31 07:00:49;;;;;;;3.77;2.73;;;;;;;22.71;42.65;101579.78;5020900;28;20253;-67
2021/05/31 07:03:18;;;;;;;3.30;2.50;;;;;;;23.13;41.64;101632.78;5020302;28;20205;-67
2021/05/31 07:05:46;;;;;;;4.23;2.63;;;;;;;23.35;41.73;101646.94;5017169;28;20289;-67
2021/05/31 07:08:13;;;;;;;3.70;2.60;;;;;;;23.32;42.19;101644.53;5019154;28;20198;-66
2021/05/31 07:10:42;;;;;;;3.83;2.90;;;;;;;23.52;41.87;101633.09;5017930;28;20199;-67
2021/05/31 07:13:09;;;;;;;3.27;2.63;;;;;;;23.54;41.40;101633.78;5014489;28;20214;-66
2021/05/31 07:15:37;;;;;;;3.00;2.70;;;;;;;23.72;41.50;101632.84;5017752;28;20239;-66
2021/05/31 07:18:05;;;;;;;3.53;2.70;;;;;;;23.65;41.60;101624.44;5013318;28;20198;-66
2021/05/31 07:20:34;;;;;;;2.73;2.53;;;;;;;23.88;40.88;101626.53;5013474;28;20261;-67
2021/05/31 07:23:02;;;;;;;2.77;2.40;;;;;;;23.98;41.09;101617.13;5012164;28;20187;-66
2021/05/31 07:25:30;;;;;;;3.17;2.53;;;;;;;24.16;41.14;101597.72;5022785;28;20195;-72
2021/05/31 07:27:58;;;;;;;3.37;2.70;;;;;;;24.56;41.10;101612.50;5025624;28;20194;-66
2021/05/31 07:30:26;;;;;;;3.73;2.90;;;;;;;24.94;39.52;101608.13;5014863;28;20625;-66
2021/05/31 07:32:54;;;;;;;4.90;2.83;;;;;;;25.19;39.19;101598.78;5010486;28;20645;-66
2021/05/31 07:35:22;;;;;;;5.27;2.93;;;;;;;25.39;39.03;101601.94;5018062;28;20541;-66
2021/05/31 07:37:51;;;;;;;3.83;2.40;;;;;;;25.60;38.54;101598.56;5014576;28;20226;-66
2021/05/31 07:40:19;;;;;;;3.65;2.55;;;;;;;25.98;38.44;101614.16;5017483;28;20199;-66
2021/05/31 07:42:47;;;;;;;3.05;2.50;;;;;;;26.25;37.47;101607.22;5016270;28;20591;-66
2021/05/31 07:45:17;;;;;;;2.42;2.22;;;;;;;26.48;36.69;101603.63;5015393;28;20431;-67
2021/05/31 07:47:46;;;;;;;4.68;2.40;;;;;;;26.68;36.56;101610.31;5018794;28;20202;-72
2021/05/31 07:50:15;;;;;;;4.05;2.67;;;;;;;26.80;35.64;101607.94;5022705;28;20700;-72
2021/05/31 07:52:43;;;;;;;4.32;2.50;;;;;;;26.70;36.36;101607.38;5016182;28;20741;-72
2021/05/31 07:55:15;;;;;;;4.70;2.40;;;;;;;26.92;36.64;101604.50;5026923;28;20203;-72
2021/05/31 07:57:44;;;;;;;2.63;2.38;;;;;;;27.17;37.01;101604.25;5014304;28;20209;-72
2021/05/31 08:00:15;;;;;;;2.47;2.20;;;;;;;27.46;36.38;101601.47;5027465;28;20203;-72
2021/05/31 08:02:44;;;;;;;2.97;2.42;;;;;;;27.65;35.85;101577.09;5017986;28;20203;-72
2021/05/31 08:05:14;;;;;;;2.50;2.30;;;;;;;27.82;35.19;101559.19;5021697;28;20633;-72
2021/05/31 08:07:41;;;;;;;5.20;2.50;;;;;;;28.29;35.66;101583.47;5024047;28;20195;-72
2021/05/31 08:10:11;;;;;;;2.88;2.10;;;;;;;28.43;35.57;101595.47;5028687;28;20643;-72
2021/05/31 08:12:40;;;;;;;2.55;1.90;;;;;;;28.60;34.53;101585.84;5024924;28;20634;-72
2021/05/31 08:15:10;;;;;;;3.15;1.95;;;;;;;28.55;33.72;101587.50;5020473;28;20313;-72
2021/05/31 08:17:38;;;;;;;1.77;1.67;;;;;;;28.75;33.69;101558.06;5025000;28;20198;-71
2021/05/31 08:20:08;;;;;;;1.80;1.70;;;;;;;28.98;33.92;101582.69;5029019;28;20628;-74
2021/05/31 08:22:36;;;;;;;4.32;1.67;;;;;;;29.21;33.39;101568.56;5024866;28;20191;-71
2021/05/31 08:25:06;;;;;;;1.73;1.60;;;;;;;29.30;33.06;101553.47;5028152;28;20288;-73
2021/05/31 08:27:34;;;;;;;2.05;1.67;;;;;;;29.59;31.97;101564.25;5028557;28;20201;-73
2021/05/31 08:30:04;;;;;;;5.32;1.90;;;;;;;29.87;32.33;101568.78;5023681;28;20218;-73
2021/05/31 08:32:31;;;;;;;10.82;1.85;;;;;;;30.11;31.84;101564.59;5032558;28;20207;-73
2021/05/31 08:34:59;;;;;;;1.83;1.67;;;;;;;30.34;31.22;101565.03;5024325;28;20584;-72
2021/05/31 08:37:27;;;;;;;2.00;1.60;;;;;;;30.31;30.44;101540.50;5030737;28;20642;-72
2021/05/31 08:39:55;;;;;;;2.55;1.70;;;;;;;30.43;30.68;101562.88;5021457;28;20421;-73
2021/05/31 08:42:23;;;;;;;1.80;1.50;;;;;;;30.52;31.43;101540.25;5022871;28;20198;-70
2021/05/31 08:44:51;;;;;;;1.65;1.55;;;;;;;30.70;31.37;101522.09;5028261;28;20567;-71
2021/05/31 08:47:21;;;;;;;1.80;1.70;;;;;;;30.86;30.50;101557.69;5022251;28;20218;-71
2021/05/31 08:49:50;;;;;;;1.67;1.55;;;;;;;30.77;30.05;101559.00;5024769;28;20200;-71
2021/05/31 08:52:18;;;;;;;9.80;2.10;;;;;;;31.07;30.40;101551.88;5017465;28;20242;-72
2021/05/31 08:54:45;;;;;;;1.70;1.60;;;;;;;31.04;30.52;101535.66;5021044;28;20208;-71
2021/05/31 08:57:13;;;;;;;1.67;1.58;;;;;;;30.88;29.58;101539.75;5017931;28;20199;-71
2021/05/31 08:59:41;;;;;;;2.83;1.75;;;;;;;30.93;30.86;101529.94;5014806;28;20206;-72
2021/05/31 09:02:10;;;;;;;4.07;1.65;;;;;;;31.12;30.98;101546.50;5026733;28;20198;-72
2021/05/31 09:04:50;;;;;;;3.25;1.80;;;;;;;30.93;29.16;101550.22;5016592;28;20748;-66
2021/05/31 09:07:21;;;;;;;1.77;1.60;;;;;;;30.81;30.82;101549.16;5020215;28;20434;-66
2021/05/31 09:09:48;;;;;;;1.60;1.50;;;;;;;30.90;31.00;101553.41;5018516;28;20411;-66
2021/05/31 09:12:21;;;;;;;2.00;1.80;;;;;;;31.15;31.41;101550.75;5024458;28;20933;-66
2021/05/31 09:14:54;;;;;;;2.17;1.80;;;;;;;31.31;31.15;101546.69;5026780;28;20846;-66
2021/05/31 09:17:27;;;;;;;2.63;1.60;;;;;;;31.49;30.18;101544.00;5013955;28;20195;-66
2021/05/31 09:19:56;;;;;;;2.00;1.80;;;;;;;31.69;29.67;101535.56;5017086;28;20234;-66
2021/05/31 09:22:24;;;;;;;2.47;2.00;;;;;;;31.91;30.57;101534.16;5027532;28;20203;-67
2021/05/31 09:24:57;;;;;;;2.45;1.90;;;;;;;32.17;30.74;101524.75;5015381;28;20210;-66
2021/05/31 09:27:25;;;;;;;4.63;2.13;;;;;;;32.33;30.60;101534.44;5025488;28;20503;-67
2021/05/31 09:29:58;;;;;;;2.13;1.80;;;;;;;32.34;30.44;101536.16;5023105;28;20556;-66
2021/05/31 09:32:26;;;;;;;3.63;1.90;;;;;;;32.24;29.64;101536.66;5013235;28;20199;-66
2021/05/31 09:35:00;;;;;;;8.27;2.30;;;;;;;31.85;29.96;101529.50;5026832;28;20191;-67
2021/05/31 09:37:28;;;;;;;2.92;2.20;;;;;;;32.03;30.25;101529.53;5018834;28;20651;-67
2021/05/31 09:40:02;;;;;;;3.60;2.00;;;;;;;31.88;30.42;101533.75;5023601;28;20210;-66
2021/05/31 09:42:31;;;;;;;2.08;1.98;;;;;;;31.91;30.30;101530.50;5027679;28;20221;-67
2021/05/31 09:45:03;;;;;;;1.80;1.70;;;;;;;31.95;30.62;101495.63;5029556;28;20312;-67
2021/05/31 09:47:33;;;;;;;3.70;2.25;;;;;;;32.16;30.37;101528.59;5016595;28;20493;-67
2021/05/31 09:50:03;;;;;;;2.88;1.85;;;;;;;31.96;30.20;101516.78;5013941;28;20202;-66
2021/05/31 09:52:31;;;;;;;1.90;1.80;;;;;;;31.87;30.10;101518.16;5032533;28;20218;-67
2021/05/31 09:55:03;;;;;;;1.65;1.52;;;;;;;31.79;29.99;101522.88;5029309;28;20202;-66
2021/05/31 09:57:34;;;;;;;2.55;1.90;;;;;;;31.38;29.37;101525.28;5037856;28;20220;-72
2021/05/31 10:00:08;;;;;;;2.30;1.80;;;;;;;31.09;29.42;101521.97;5030628;28;20957;-72
2021/05/31 10:02:48;;;;;;;5.47;2.28;;;;;;;30.74;29.93;101503.97;5012953;28;20195;-67
2021/05/31 10:05:30;;;;;;;1.83;1.73;;;;;;;30.43;30.74;101524.06;5012544;28;20210;-71
2021/05/31 10:08:02;;;;;;;2.40;2.20;;;;;;;30.28;30.80;101519.56;5012508;28;20195;-72
2021/05/31 10:10:31;;;;;;;1.80;1.70;;;;;;;30.15;30.80;101496.56;5029890;28;20226;-72
2021/05/31 10:12:59;;;;;;;1.83;1.70;;;;;;;30.05;30.90;101527.50;5036460;28;20258;-72
2021/05/31 10:15:30;;;;;;;2.03;1.70;;;;;;;29.06;32.02;101518.88;5026638;28;20242;-72
2021/05/31 10:17:59;;;;;;;5.05;1.95;;;;;;;28.77;32.13;101522.75;5028607;28;20673;-72
2021/05/31 10:20:30;;;;;;;3.33;1.70;;;;;;;29.13;31.07;101524.47;5022605;28;20218;-66
2021/05/31 10:23:03;;;;;;;3.53;1.90;;;;;;;29.05;32.40;101528.25;5026731;28;20199;-67
2021/05/31 10:25:31;;;;;;;3.13;1.70;;;;;;;29.13;32.29;101530.00;5026157;28;20213;-67
2021/05/31 10:28:06;;;;;;;1.83;1.73;;;;;;;29.20;32.08;101531.72;5018129;28;20218;-67
2021/05/31 10:30:40;;;;;;;2.58;2.35;;;;;;;28.83;32.22;101513.66;5015922;28;20217;-68
2021/05/31 10:33:13;;;;;;;5.20;2.53;;;;;;;28.81;32.75;101537.91;5020704;28;20206;-68
2021/05/31 10:35:43;;;;;;;2.15;1.95;;;;;;;28.62;33.40;101533.97;5052805;28;20274;-68
2021/05/31 10:38:12;;;;;;;2.28;2.08;;;;;;;28.03;34.29;101539.00;5017855;28;20210;-68
2021/05/31 10:40:44;;;;;;;3.13;2.30;;;;;;;27.92;35.34;101536.78;5027358;28;20576;-67
2021/05/31 10:43:15;;;;;;;3.47;2.70;;;;;;;26.82;35.34;101526.75;5058387;28;20198;-68
2021/05/31 10:45:44;;;;;;;4.78;2.30;;;;;;;26.71;36.50;101538.28;5028521;28;20229;-68
2021/05/31 10:48:13;;;;;;;4.43;2.55;;;;;;;26.20;37.36;101496.78;5027953;28;20195;-68
2021/05/31 10:50:45;;;;;;;5.63;2.42;;;;;;;26.57;38.91;101541.88;5020434;28;20191;-73
2021/05/31 10:53:25;;;;;;;5.43;2.55;;;;;;;26.40;37.13;101532.06;5040354;28;20222;-74
2021/05/31 10:55:54;;;;;;;2.90;2.60;;;;;;;26.11;38.08;101516.31;5019222;28;20969;-73
2021/05/31 10:58:24;;;;;;;7.82;2.92;;;;;;;25.94;38.36;101468.78;5062169;28;20199;-73
2021/05/31 11:01:00;;;;;;;3.17;2.33;;;;;;;26.34;38.59;101536.44;5057949;28;20611;-73
2021/05/31 11:03:28;;;;;;;3.63;2.40;;;;;;;26.21;39.21;101536.19;5017150;28;20219;-73
2021/05/31 11:05:58;;;;;;;2.88;2.50;;;;;;;26.30;38.63;101533.16;5018183;28;20208;-68
2021/05/31 11:08:28;;;;;;;3.78;2.45;;;;;;;26.04;38.61;101548.41;5022182;28;20226;-68
2021/05/31 11:10:58;;;;;;;4.47;2.60;;;;;;;26.37;38.56;101540.72;5028679;28;20684;-68
2021/05/31 11:13:26;;;;;;;4.70;2.50;;;;;;;26.56;37.64;101540.16;5034530;28;20215;-68
2021/05/31 11:16:03;;;;;;;7.35;2.33;;;;;;;26.26;37.48;101489.66;5034023;28;20435;-68
2021/05/31 11:18:40;;;;;;;4.10;2.60;;;;;;;26.65;37.81;101539.03;5028189;28;20669;-67
2021/05/31 11:21:10;;;;;;;6.15;2.55;;;;;;;26.18;37.89;101531.91;5023932;28;20212;-68
2021/05/31 11:23:39;;;;;;;3.78;2.80;;;;;;;25.80;38.05;101527.44;5028250;28;20726;-68
2021/05/31 11:26:07;;;;;;;4.03;2.60;;;;;;;26.28;37.39;101532.47;5027082;28;20190;-73
2021/05/31 11:28:35;;;;;;;4.82;2.92;;;;;;;25.94;37.93;101534.88;5015116;28;20198;-73
2021/05/31 11:31:03;;;;;;;4.43;2.95;;;;;;;25.79;39.35;101528.47;5030511;28;20203;-72
2021/05/31 11:33:33;;;;;;;3.10;2.47;;;;;;;25.71;39.26;101478.97;5029370;28;20214;-72
2021/05/31 11:36:01;;;;;;;8.90;2.70;;;;;;;26.35;38.68;101531.78;5071769;28;20204;-72
2021/05/31 11:38:31;;;;;;;5.22;3.10;;;;;;;26.45;37.80;101526.84;5035901;28;20195;-72
2021/05/31 11:40:59;;;;;;;3.42;2.58;;;;;;;26.67;38.62;101541.59;5041270;28;20197;-72
2021/05/31 11:43:26;;;;;;;3.90;2.80;;;;;;;26.59;38.49;101534.25;5016578;28;20191;-72
2021/05/31 11:45:54;;;;;;;6.45;3.17;;;;;;;26.73;38.92;101540.84;5029604;28;20681;-72